Terminal Aerodrome Forecast
Issued by NWS

Home | Current Version | Previous Version | Text Only | Print | Product List | Glossary On
Versions: 1 2 3 4 5 6 7 8 9 10 11 12 13 14 15 16 17 18
000
FTUS42 KMLB 061559 AAA
TAFTIX
TAF AMD
KTIX 061559Z 0616/0712 29015KT P6SM FEW040
     FM061700 32013G20KT P6SM FEW050
     FM070000 VRB04KT P6SM SKC=

USA.gov is the U.S. government's official web portal to all federal, state and local government web resources and services.